sensor_id;sensor_type;location;lat;lon;timestamp;P1;durP1;ratioP1;P2;durP2;ratioP2
78873;SDS011;68250;43.514;1.494;2023-07-31T00:00:28;8.30;;;3.23;;
78873;SDS011;68250;43.514;1.494;2023-07-31T00:02:54;9.35;;;3.70;;
78873;SDS011;68250;43.514;1.494;2023-07-31T00:05:20;8.43;;;3.30;;
78873;SDS011;68250;43.514;1.494;2023-07-31T00:07:46;10.38;;;3.53;;
78873;SDS011;68250;43.514;1.494;2023-07-31T00:10:12;9.30;;;3.17;;
78873;SDS011;68250;43.514;1.494;2023-07-31T00:12:40;8.67;;;3.10;;
78873;SDS011;68250;43.514;1.494;2023-07-31T00:15:07;7.07;;;3.70;;
78873;SDS011;68250;43.514;1.494;2023-07-31T00:17:33;7.63;;;3.42;;
78873;SDS011;68250;43.514;1.494;2023-07-31T00:19:59;7.87;;;3.30;;
78873;SDS011;68250;43.514;1.494;2023-07-31T00:22:24;7.32;;;3.33;;
78873;SDS011;68250;43.514;1.494;2023-07-31T00:24:50;8.47;;;3.40;;
78873;SDS011;68250;43.514;1.494;2023-07-31T00:27:16;7.38;;;3.47;;
78873;SDS011;68250;43.514;1.494;2023-07-31T00:29:42;7.10;;;3.23;;
78873;SDS011;68250;43.514;1.494;2023-07-31T00:32:07;8.70;;;3.50;;
78873;SDS011;68250;43.514;1.494;2023-07-31T00:34:33;8.93;;;3.70;;
78873;SDS011;68250;43.514;1.494;2023-07-31T00:36:58;10.18;;;3.90;;
78873;SDS011;68250;43.514;1.494;2023-07-31T00:39:24;6.57;;;3.37;;
78873;SDS011;68250;43.514;1.494;2023-07-31T00:41:50;8.55;;;3.75;;
78873;SDS011;68250;43.514;1.494;2023-07-31T00:44:16;8.87;;;3.50;;
78873;SDS011;68250;43.514;1.494;2023-07-31T00:46:41;7.33;;;3.07;;
78873;SDS011;68250;43.514;1.494;2023-07-31T00:49:07;9.60;;;3.80;;
78873;SDS011;68250;43.514;1.494;2023-07-31T00:51:33;9.23;;;3.72;;
78873;SDS011;68250;43.514;1.494;2023-07-31T00:53:58;8.90;;;3.63;;
78873;SDS011;68250;43.514;1.494;2023-07-31T00:56:24;10.77;;;3.50;;
78873;SDS011;68250;43.514;1.494;2023-07-31T00:58:50;8.07;;;3.40;;
78873;SDS011;68250;43.514;1.494;2023-07-31T01:01:16;8.23;;;3.77;;
78873;SDS011;68250;43.514;1.494;2023-07-31T01:03:41;7.83;;;3.73;;
78873;SDS011;68250;43.514;1.494;2023-07-31T01:06:26;10.30;;;3.72;;
78873;SDS011;68250;43.514;1.494;2023-07-31T01:12:04;7.18;;;3.35;;
78873;SDS011;68250;43.514;1.494;2023-07-31T01:14:32;9.90;;;3.42;;
78873;SDS011;68250;43.514;1.494;2023-07-31T01:16:58;7.77;;;3.70;;
78873;SDS011;68250;43.514;1.494;2023-07-31T01:19:24;8.30;;;3.30;;
78873;SDS011;68250;43.514;1.494;2023-07-31T01:22:12;6.17;;;3.13;;
78873;SDS011;68250;43.514;1.494;2023-07-31T01:27:39;8.45;;;3.67;;
78873;SDS011;68250;43.514;1.494;2023-07-31T01:30:11;8.43;;;3.40;;
78873;SDS011;68250;43.514;1.494;2023-07-31T01:32:42;9.57;;;4.05;;
78873;SDS011;68250;43.514;1.494;2023-07-31T01:35:09;9.33;;;3.77;;
78873;SDS011;68250;43.514;1.494;2023-07-31T01:37:35;7.93;;;3.80;;
78873;SDS011;68250;43.514;1.494;2023-07-31T01:40:01;11.75;;;3.70;;
78873;SDS011;68250;43.514;1.494;2023-07-31T01:42:26;8.77;;;3.50;;
78873;SDS011;68250;43.514;1.494;2023-07-31T01:44:52;6.55;;;3.72;;
78873;SDS011;68250;43.514;1.494;2023-07-31T01:47:18;10.50;;;3.33;;
78873;SDS011;68250;43.514;1.494;2023-07-31T01:49:43;7.77;;;3.23;;
78873;SDS011;68250;43.514;1.494;2023-07-31T01:52:09;8.70;;;3.67;;
78873;SDS011;68250;43.514;1.494;2023-07-31T01:54:35;12.73;;;3.90;;
78873;SDS011;68250;43.514;1.494;2023-07-31T01:57:02;8.70;;;3.47;;
78873;SDS011;68250;43.514;1.494;2023-07-31T01:59:27;10.43;;;3.90;;
78873;SDS011;68250;43.514;1.494;2023-07-31T02:01:54;8.77;;;4.07;;
78873;SDS011;68250;43.514;1.494;2023-07-31T02:04:19;12.80;;;4.43;;
78873;SDS011;68250;43.514;1.494;2023-07-31T02:06:45;9.30;;;3.60;;
78873;SDS011;68250;43.514;1.494;2023-07-31T02:09:11;9.03;;;4.00;;
78873;SDS011;68250;43.514;1.494;2023-07-31T02:11:36;12.13;;;3.93;;
78873;SDS011;68250;43.514;1.494;2023-07-31T02:14:02;7.85;;;3.70;;
78873;SDS011;68250;43.514;1.494;2023-07-31T02:16:28;8.43;;;3.87;;
78873;SDS011;68250;43.514;1.494;2023-07-31T02:18:53;9.48;;;3.90;;
78873;SDS011;68250;43.514;1.494;2023-07-31T02:21:19;7.80;;;3.63;;
78873;SDS011;68250;43.514;1.494;2023-07-31T02:23:45;11.27;;;4.00;;
78873;SDS011;68250;43.514;1.494;2023-07-31T02:26:10;8.57;;;3.67;;
78873;SDS011;68250;43.514;1.494;2023-07-31T02:28:36;6.90;;;3.50;;
78873;SDS011;68250;43.514;1.494;2023-07-31T02:31:02;8.52;;;3.55;;
78873;SDS011;68250;43.514;1.494;2023-07-31T02:33:28;7.95;;;3.58;;
78873;SDS011;68250;43.514;1.494;2023-07-31T02:35:53;8.40;;;3.83;;
78873;SDS011;68250;43.514;1.494;2023-07-31T02:38:19;8.33;;;3.77;;
78873;SDS011;68250;43.514;1.494;2023-07-31T02:40:45;7.95;;;3.60;;
78873;SDS011;68250;43.514;1.494;2023-07-31T02:43:10;8.00;;;3.73;;
78873;SDS011;68250;43.514;1.494;2023-07-31T02:45:36;9.43;;;3.80;;
78873;SDS011;68250;43.514;1.494;2023-07-31T02:48:02;11.33;;;4.60;;
78873;SDS011;68250;43.514;1.494;2023-07-31T02:50:27;13.07;;;4.30;;
78873;SDS011;68250;43.514;1.494;2023-07-31T02:52:53;10.32;;;4.00;;
78873;SDS011;68250;43.514;1.494;2023-07-31T02:55:19;10.00;;;5.07;;
78873;SDS011;68250;43.514;1.494;2023-07-31T02:57:45;10.10;;;4.57;;
78873;SDS011;68250;43.514;1.494;2023-07-31T03:00:10;14.10;;;5.93;;
78873;SDS011;68250;43.514;1.494;2023-07-31T03:02:36;15.85;;;7.57;;
78873;SDS011;68250;43.514;1.494;2023-07-31T03:05:02;16.30;;;8.73;;
78873;SDS011;68250;43.514;1.494;2023-07-31T03:07:28;16.57;;;7.87;;
78873;SDS011;68250;43.514;1.494;2023-07-31T03:09:55;14.17;;;7.97;;
78873;SDS011;68250;43.514;1.494;2023-07-31T03:12:21;14.95;;;8.18;;
78873;SDS011;68250;43.514;1.494;2023-07-31T03:14:46;15.73;;;8.33;;
78873;SDS011;68250;43.514;1.494;2023-07-31T03:17:12;12.77;;;7.55;;
78873;SDS011;68250;43.514;1.494;2023-07-31T03:19:37;15.00;;;8.10;;
78873;SDS011;68250;43.514;1.494;2023-07-31T03:22:03;13.35;;;7.20;;
78873;SDS011;68250;43.514;1.494;2023-07-31T03:24:29;11.33;;;6.67;;
78873;SDS011;68250;43.514;1.494;2023-07-31T03:26:55;13.05;;;6.78;;
78873;SDS011;68250;43.514;1.494;2023-07-31T03:29:21;12.63;;;6.07;;
78873;SDS011;68250;43.514;1.494;2023-07-31T03:31:46;12.75;;;5.63;;
78873;SDS011;68250;43.514;1.494;2023-07-31T03:34:12;10.87;;;4.97;;
78873;SDS011;68250;43.514;1.494;2023-07-31T03:36:37;11.38;;;4.85;;
78873;SDS011;68250;43.514;1.494;2023-07-31T03:39:03;8.50;;;4.37;;
78873;SDS011;68250;43.514;1.494;2023-07-31T03:41:29;9.73;;;4.17;;
78873;SDS011;68250;43.514;1.494;2023-07-31T03:43:54;9.02;;;4.38;;
78873;SDS011;68250;43.514;1.494;2023-07-31T03:46:24;8.88;;;4.30;;
78873;SDS011;68250;43.514;1.494;2023-07-31T03:48:50;8.50;;;4.10;;
78873;SDS011;68250;43.514;1.494;2023-07-31T03:51:16;10.52;;;4.05;;
78873;SDS011;68250;43.514;1.494;2023-07-31T03:53:42;9.93;;;4.28;;
78873;SDS011;68250;43.514;1.494;2023-07-31T03:56:08;9.30;;;3.83;;
78873;SDS011;68250;43.514;1.494;2023-07-31T03:58:34;8.83;;;3.80;;
78873;SDS011;68250;43.514;1.494;2023-07-31T04:01:01;8.95;;;3.70;;
78873;SDS011;68250;43.514;1.494;2023-07-31T04:03:26;8.07;;;3.30;;
78873;SDS011;68250;43.514;1.494;2023-07-31T04:05:53;11.15;;;3.20;;
78873;SDS011;68250;43.514;1.494;2023-07-31T04:08:21;8.10;;;3.65;;
78873;SDS011;68250;43.514;1.494;2023-07-31T04:10:46;8.13;;;3.47;;
78873;SDS011;68250;43.514;1.494;2023-07-31T04:13:12;7.60;;;3.30;;
78873;SDS011;68250;43.514;1.494;2023-07-31T04:15:38;10.13;;;3.40;;
78873;SDS011;68250;43.514;1.494;2023-07-31T04:18:04;8.15;;;3.40;;
78873;SDS011;68250;43.514;1.494;2023-07-31T04:20:30;9.70;;;3.58;;
78873;SDS011;68250;43.514;1.494;2023-07-31T04:22:56;11.47;;;3.50;;
78873;SDS011;68250;43.514;1.494;2023-07-31T04:25:21;7.43;;;3.60;;
78873;SDS011;68250;43.514;1.494;2023-07-31T04:27:47;9.60;;;3.90;;
78873;SDS011;68250;43.514;1.494;2023-07-31T04:30:13;10.18;;;4.00;;
78873;SDS011;68250;43.514;1.494;2023-07-31T04:32:39;9.53;;;3.60;;
78873;SDS011;68250;43.514;1.494;2023-07-31T04:35:04;10.05;;;3.38;;
78873;SDS011;68250;43.514;1.494;2023-07-31T04:37:30;10.27;;;3.45;;
78873;SDS011;68250;43.514;1.494;2023-07-31T04:39:56;9.70;;;3.50;;
78873;SDS011;68250;43.514;1.494;2023-07-31T04:42:22;9.52;;;3.25;;
78873;SDS011;68250;43.514;1.494;2023-07-31T04:44:48;8.27;;;3.43;;
78873;SDS011;68250;43.514;1.494;2023-07-31T04:47:14;8.63;;;3.63;;
78873;SDS011;68250;43.514;1.494;2023-07-31T04:49:39;9.20;;;3.40;;
78873;SDS011;68250;43.514;1.494;2023-07-31T04:52:05;7.70;;;3.13;;
78873;SDS011;68250;43.514;1.494;2023-07-31T04:54:31;12.53;;;3.83;;
78873;SDS011;68250;43.514;1.494;2023-07-31T04:56:56;10.70;;;3.30;;
78873;SDS011;68250;43.514;1.494;2023-07-31T04:59:22;10.77;;;3.77;;
78873;SDS011;68250;43.514;1.494;2023-07-31T05:01:48;9.60;;;3.40;;
78873;SDS011;68250;43.514;1.494;2023-07-31T05:04:14;10.00;;;3.63;;
78873;SDS011;68250;43.514;1.494;2023-07-31T05:06:40;12.52;;;4.03;;
78873;SDS011;68250;43.514;1.494;2023-07-31T05:09:06;9.45;;;3.10;;
78873;SDS011;68250;43.514;1.494;2023-07-31T05:11:32;11.20;;;3.43;;
78873;SDS011;68250;43.514;1.494;2023-07-31T05:13:57;9.15;;;3.53;;
78873;SDS011;68250;43.514;1.494;2023-07-31T05:16:23;9.67;;;3.33;;
78873;SDS011;68250;43.514;1.494;2023-07-31T05:18:49;10.68;;;3.40;;
78873;SDS011;68250;43.514;1.494;2023-07-31T05:21:14;9.57;;;3.77;;
78873;SDS011;68250;43.514;1.494;2023-07-31T05:23:40;8.40;;;3.25;;
78873;SDS011;68250;43.514;1.494;2023-07-31T05:26:06;8.77;;;3.50;;
78873;SDS011;68250;43.514;1.494;2023-07-31T05:28:34;9.90;;;3.55;;
78873;SDS011;68250;43.514;1.494;2023-07-31T05:31:03;8.57;;;3.17;;
78873;SDS011;68250;43.514;1.494;2023-07-31T05:33:29;10.97;;;3.23;;
78873;SDS011;68250;43.514;1.494;2023-07-31T05:35:56;7.15;;;3.05;;
78873;SDS011;68250;43.514;1.494;2023-07-31T05:38:22;12.68;;;3.65;;
78873;SDS011;68250;43.514;1.494;2023-07-31T05:40:47;9.83;;;3.40;;
78873;SDS011;68250;43.514;1.494;2023-07-31T05:43:13;8.82;;;3.40;;
78873;SDS011;68250;43.514;1.494;2023-07-31T05:45:39;8.85;;;3.38;;
78873;SDS011;68250;43.514;1.494;2023-07-31T05:48:07;8.48;;;3.50;;
78873;SDS011;68250;43.514;1.494;2023-07-31T05:50:32;11.43;;;3.30;;
78873;SDS011;68250;43.514;1.494;2023-07-31T05:52:58;8.13;;;3.20;;
78873;SDS011;68250;43.514;1.494;2023-07-31T05:55:24;9.93;;;3.50;;
78873;SDS011;68250;43.514;1.494;2023-07-31T05:57:52;9.13;;;3.30;;
78873;SDS011;68250;43.514;1.494;2023-07-31T06:00:21;8.53;;;3.17;;
78873;SDS011;68250;43.514;1.494;2023-07-31T06:02:47;8.73;;;3.50;;
78873;SDS011;68250;43.514;1.494;2023-07-31T06:05:13;9.05;;;3.42;;
78873;SDS011;68250;43.514;1.494;2023-07-31T06:07:39;8.10;;;3.22;;
78873;SDS011;68250;43.514;1.494;2023-07-31T06:10:05;12.17;;;3.20;;
78873;SDS011;68250;43.514;1.494;2023-07-31T06:12:31;11.77;;;3.45;;
78873;SDS011;68250;43.514;1.494;2023-07-31T06:14:58;9.45;;;3.33;;
78873;SDS011;68250;43.514;1.494;2023-07-31T06:17:23;10.93;;;3.87;;
78873;SDS011;68250;43.514;1.494;2023-07-31T06:19:49;9.18;;;3.17;;
78873;SDS011;68250;43.514;1.494;2023-07-31T06:22:16;10.57;;;3.25;;
78873;SDS011;68250;43.514;1.494;2023-07-31T06:24:41;9.80;;;3.00;;
78873;SDS011;68250;43.514;1.494;2023-07-31T06:27:07;8.45;;;3.30;;
78873;SDS011;68250;43.514;1.494;2023-07-31T06:29:33;9.23;;;3.17;;
78873;SDS011;68250;43.514;1.494;2023-07-31T06:31:58;10.70;;;2.83;;
78873;SDS011;68250;43.514;1.494;2023-07-31T06:34:24;12.47;;;3.00;;
78873;SDS011;68250;43.514;1.494;2023-07-31T06:36:50;10.55;;;3.10;;
78873;SDS011;68250;43.514;1.494;2023-07-31T06:39:15;12.87;;;3.20;;
78873;SDS011;68250;43.514;1.494;2023-07-31T06:41:41;11.32;;;3.30;;
78873;SDS011;68250;43.514;1.494;2023-07-31T06:44:08;14.27;;;2.90;;
78873;SDS011;68250;43.514;1.494;2023-07-31T06:46:33;10.88;;;3.28;;
78873;SDS011;68250;43.514;1.494;2023-07-31T06:48:59;11.70;;;2.90;;
78873;SDS011;68250;43.514;1.494;2023-07-31T06:51:25;9.33;;;3.07;;
78873;SDS011;68250;43.514;1.494;2023-07-31T06:53:50;11.73;;;3.40;;
78873;SDS011;68250;43.514;1.494;2023-07-31T06:56:16;13.05;;;3.05;;
78873;SDS011;68250;43.514;1.494;2023-07-31T06:58:42;14.50;;;3.13;;
78873;SDS011;68250;43.514;1.494;2023-07-31T07:01:08;10.63;;;3.00;;
78873;SDS011;68250;43.514;1.494;2023-07-31T07:03:33;13.02;;;3.17;;
78873;SDS011;68250;43.514;1.494;2023-07-31T07:05:59;15.00;;;3.27;;
78873;SDS011;68250;43.514;1.494;2023-07-31T07:08:25;12.13;;;3.20;;
78873;SDS011;68250;43.514;1.494;2023-07-31T07:10:51;11.52;;;3.25;;
78873;SDS011;68250;43.514;1.494;2023-07-31T07:13:17;16.90;;;4.00;;
78873;SDS011;68250;43.514;1.494;2023-07-31T07:15:43;9.40;;;3.20;;
78873;SDS011;68250;43.514;1.494;2023-07-31T07:18:14;12.20;;;3.35;;
78873;SDS011;68250;43.514;1.494;2023-07-31T07:20:39;14.13;;;3.00;;
78873;SDS011;68250;43.514;1.494;2023-07-31T07:23:05;9.40;;;3.20;;
78873;SDS011;68250;43.514;1.494;2023-07-31T07:25:31;11.90;;;3.00;;
78873;SDS011;68250;43.514;1.494;2023-07-31T07:27:56;13.00;;;2.80;;
78873;SDS011;68250;43.514;1.494;2023-07-31T07:30:22;13.02;;;3.45;;
78873;SDS011;68250;43.514;1.494;2023-07-31T07:32:50;10.27;;;2.70;;
78873;SDS011;68250;43.514;1.494;2023-07-31T07:35:15;10.02;;;2.72;;
78873;SDS011;68250;43.514;1.494;2023-07-31T07:37:41;13.17;;;2.97;;
78873;SDS011;68250;43.514;1.494;2023-07-31T07:40:07;11.32;;;3.40;;
78873;SDS011;68250;43.514;1.494;2023-07-31T07:42:33;11.48;;;3.13;;
78873;SDS011;68250;43.514;1.494;2023-07-31T07:44:59;14.07;;;3.20;;
78873;SDS011;68250;43.514;1.494;2023-07-31T07:47:26;20.02;;;4.22;;
78873;SDS011;68250;43.514;1.494;2023-07-31T07:49:51;37.77;;;6.03;;
78873;SDS011;68250;43.514;1.494;2023-07-31T07:52:17;22.83;;;4.63;;
78873;SDS011;68250;43.514;1.494;2023-07-31T07:54:42;17.47;;;4.00;;
78873;SDS011;68250;43.514;1.494;2023-07-31T07:57:08;11.63;;;3.47;;
78873;SDS011;68250;43.514;1.494;2023-07-31T07:59:34;11.55;;;3.28;;
78873;SDS011;68250;43.514;1.494;2023-07-31T08:01:59;9.13;;;3.20;;
78873;SDS011;68250;43.514;1.494;2023-07-31T08:04:25;10.23;;;3.17;;
78873;SDS011;68250;43.514;1.494;2023-07-31T08:06:51;9.77;;;3.47;;
78873;SDS011;68250;43.514;1.494;2023-07-31T08:09:16;9.70;;;3.07;;
78873;SDS011;68250;43.514;1.494;2023-07-31T08:11:42;9.85;;;2.83;;
78873;SDS011;68250;43.514;1.494;2023-07-31T08:14:08;10.37;;;3.00;;
78873;SDS011;68250;43.514;1.494;2023-07-31T08:16:33;12.65;;;3.03;;
78873;SDS011;68250;43.514;1.494;2023-07-31T08:18:59;14.73;;;3.10;;
78873;SDS011;68250;43.514;1.494;2023-07-31T08:21:24;11.15;;;3.22;;
78873;SDS011;68250;43.514;1.494;2023-07-31T08:23:50;9.90;;;2.93;;
78873;SDS011;68250;43.514;1.494;2023-07-31T08:26:16;7.07;;;2.80;;
78873;SDS011;68250;43.514;1.494;2023-07-31T08:28:43;10.45;;;2.95;;
78873;SDS011;68250;43.514;1.494;2023-07-31T08:31:08;10.48;;;2.90;;
78873;SDS011;68250;43.514;1.494;2023-07-31T08:33:34;11.33;;;3.03;;
78873;SDS011;68250;43.514;1.494;2023-07-31T08:36:00;9.60;;;2.90;;
78873;SDS011;68250;43.514;1.494;2023-07-31T08:38:26;9.13;;;2.88;;
78873;SDS011;68250;43.514;1.494;2023-07-31T08:40:52;10.13;;;3.07;;
78873;SDS011;68250;43.514;1.494;2023-07-31T08:43:19;17.55;;;5.22;;
78873;SDS011;68250;43.514;1.494;2023-07-31T08:45:45;15.10;;;4.50;;
78873;SDS011;68250;43.514;1.494;2023-07-31T08:48:12;8.75;;;3.05;;
78873;SDS011;68250;43.514;1.494;2023-07-31T08:50:38;10.87;;;4.37;;
78873;SDS011;68250;43.514;1.494;2023-07-31T08:53:04;9.60;;;2.72;;
78873;SDS011;68250;43.514;1.494;2023-07-31T08:55:29;9.50;;;3.17;;
78873;SDS011;68250;43.514;1.494;2023-07-31T08:57:57;9.80;;;2.95;;
78873;SDS011;68250;43.514;1.494;2023-07-31T09:00:24;8.38;;;2.90;;
78873;SDS011;68250;43.514;1.494;2023-07-31T09:03:02;6.70;;;2.70;;
78873;SDS011;68250;43.514;1.494;2023-07-31T09:05:29;7.00;;;2.75;;
78873;SDS011;68250;43.514;1.494;2023-07-31T09:07:56;10.37;;;3.40;;
78873;SDS011;68250;43.514;1.494;2023-07-31T09:10:22;10.18;;;2.60;;
78873;SDS011;68250;43.514;1.494;2023-07-31T09:12:51;8.98;;;2.95;;
78873;SDS011;68250;43.514;1.494;2023-07-31T09:15:17;8.57;;;2.90;;
78873;SDS011;68250;43.514;1.494;2023-07-31T09:17:43;11.18;;;3.03;;
78873;SDS011;68250;43.514;1.494;2023-07-31T09:20:19;9.73;;;3.10;;
78873;SDS011;68250;43.514;1.494;2023-07-31T09:22:46;9.32;;;2.70;;
78873;SDS011;68250;43.514;1.494;2023-07-31T09:25:17;10.80;;;4.22;;
78873;SDS011;68250;43.514;1.494;2023-07-31T09:27:59;8.23;;;3.50;;
78873;SDS011;68250;43.514;1.494;2023-07-31T09:30:29;9.18;;;2.95;;
78873;SDS011;68250;43.514;1.494;2023-07-31T09:33:03;7.75;;;2.65;;
78873;SDS011;68250;43.514;1.494;2023-07-31T09:35:32;6.97;;;2.50;;
78873;SDS011;68250;43.514;1.494;2023-07-31T09:37:59;7.93;;;2.70;;
78873;SDS011;68250;43.514;1.494;2023-07-31T09:40:26;7.73;;;2.70;;
78873;SDS011;68250;43.514;1.494;2023-07-31T09:43:03;9.13;;;2.85;;
78873;SDS011;68250;43.514;1.494;2023-07-31T09:45:33;6.50;;;2.28;;
78873;SDS011;68250;43.514;1.494;2023-07-31T09:48:01;7.93;;;2.65;;
78873;SDS011;68250;43.514;1.494;2023-07-31T09:50:27;6.90;;;2.42;;
78873;SDS011;68250;43.514;1.494;2023-07-31T09:52:53;7.97;;;2.20;;
78873;SDS011;68250;43.514;1.494;2023-07-31T09:55:19;9.65;;;2.50;;
78873;SDS011;68250;43.514;1.494;2023-07-31T09:57:45;5.83;;;2.30;;
78873;SDS011;68250;43.514;1.494;2023-07-31T10:00:13;6.00;;;2.22;;
78873;SDS011;68250;43.514;1.494;2023-07-31T10:02:40;5.60;;;2.05;;
78873;SDS011;68250;43.514;1.494;2023-07-31T10:05:06;10.13;;;2.40;;
78873;SDS011;68250;43.514;1.494;2023-07-31T10:07:37;6.83;;;2.10;;
78873;SDS011;68250;43.514;1.494;2023-07-31T10:10:07;6.55;;;2.00;;
78873;SDS011;68250;43.514;1.494;2023-07-31T10:12:34;7.43;;;2.28;;
78873;SDS011;68250;43.514;1.494;2023-07-31T10:15:01;8.20;;;2.03;;
78873;SDS011;68250;43.514;1.494;2023-07-31T10:17:27;6.80;;;1.92;;
78873;SDS011;68250;43.514;1.494;2023-07-31T10:19:54;7.77;;;1.97;;
78873;SDS011;68250;43.514;1.494;2023-07-31T10:22:22;5.97;;;1.88;;
78873;SDS011;68250;43.514;1.494;2023-07-31T10:24:48;6.00;;;1.60;;
78873;SDS011;68250;43.514;1.494;2023-07-31T10:27:14;6.30;;;2.10;;
78873;SDS011;68250;43.514;1.494;2023-07-31T10:29:40;4.77;;;1.90;;
78873;SDS011;68250;43.514;1.494;2023-07-31T10:32:07;6.95;;;2.28;;
78873;SDS011;68250;43.514;1.494;2023-07-31T10:34:35;5.85;;;2.00;;
78873;SDS011;68250;43.514;1.494;2023-07-31T10:37:20;11.05;;;2.17;;
78873;SDS011;68250;43.514;1.494;2023-07-31T10:42:30;7.40;;;2.10;;
78873;SDS011;68250;43.514;1.494;2023-07-31T10:45:07;6.72;;;2.00;;
78873;SDS011;68250;43.514;1.494;2023-07-31T10:47:38;8.48;;;2.60;;
78873;SDS011;68250;43.514;1.494;2023-07-31T10:50:18;6.63;;;2.40;;
78873;SDS011;68250;43.514;1.494;2023-07-31T10:52:48;4.83;;;2.00;;
78873;SDS011;68250;43.514;1.494;2023-07-31T10:55:31;6.43;;;1.85;;
78873;SDS011;68250;43.514;1.494;2023-07-31T10:58:07;7.50;;;2.00;;
78873;SDS011;68250;43.514;1.494;2023-07-31T11:00:36;7.22;;;2.50;;
78873;SDS011;68250;43.514;1.494;2023-07-31T11:03:16;10.95;;;2.60;;
78873;SDS011;68250;43.514;1.494;2023-07-31T11:05:43;10.87;;;2.37;;
78873;SDS011;68250;43.514;1.494;2023-07-31T11:08:25;6.72;;;2.30;;
78873;SDS011;68250;43.514;1.494;2023-07-31T11:13:26;7.78;;;2.30;;
78873;SDS011;68250;43.514;1.494;2023-07-31T11:15:53;8.52;;;2.40;;
78873;SDS011;68250;43.514;1.494;2023-07-31T11:18:19;6.80;;;2.30;;
78873;SDS011;68250;43.514;1.494;2023-07-31T11:20:44;7.63;;;2.80;;
78873;SDS011;68250;43.514;1.494;2023-07-31T11:23:10;17.10;;;2.83;;
78873;SDS011;68250;43.514;1.494;2023-07-31T11:25:36;7.88;;;2.30;;
78873;SDS011;68250;43.514;1.494;2023-07-31T11:28:10;10.07;;;2.42;;
78873;SDS011;68250;43.514;1.494;2023-07-31T11:30:37;7.80;;;2.37;;
78873;SDS011;68250;43.514;1.494;2023-07-31T11:33:04;6.88;;;2.10;;
78873;SDS011;68250;43.514;1.494;2023-07-31T11:35:33;7.43;;;2.47;;
78873;SDS011;68250;43.514;1.494;2023-07-31T11:38:11;5.45;;;2.40;;
78873;SDS011;68250;43.514;1.494;2023-07-31T11:40:41;6.50;;;1.98;;
78873;SDS011;68250;43.514;1.494;2023-07-31T11:43:07;6.67;;;2.47;;
78873;SDS011;68250;43.514;1.494;2023-07-31T11:45:33;6.10;;;2.28;;
78873;SDS011;68250;43.514;1.494;2023-07-31T11:48:00;8.73;;;2.10;;
78873;SDS011;68250;43.514;1.494;2023-07-31T11:50:26;8.73;;;2.20;;
78873;SDS011;68250;43.514;1.494;2023-07-31T11:52:53;8.02;;;2.25;;
78873;SDS011;68250;43.514;1.494;2023-07-31T11:55:29;8.25;;;2.03;;
78873;SDS011;68250;43.514;1.494;2023-07-31T11:57:56;6.67;;;2.40;;
78873;SDS011;68250;43.514;1.494;2023-07-31T12:00:22;6.82;;;2.17;;
78873;SDS011;68250;43.514;1.494;2023-07-31T12:02:49;6.75;;;2.33;;
78873;SDS011;68250;43.514;1.494;2023-07-31T12:05:15;5.97;;;2.20;;
78873;SDS011;68250;43.514;1.494;2023-07-31T12:07:54;5.73;;;2.30;;
78873;SDS011;68250;43.514;1.494;2023-07-31T12:10:23;6.90;;;2.22;;
78873;SDS011;68250;43.514;1.494;2023-07-31T12:12:56;4.65;;;2.00;;
78873;SDS011;68250;43.514;1.494;2023-07-31T12:15:36;6.20;;;2.40;;
78873;SDS011;68250;43.514;1.494;2023-07-31T12:18:10;5.85;;;2.10;;
78873;SDS011;68250;43.514;1.494;2023-07-31T12:20:40;6.33;;;2.30;;
78873;SDS011;68250;43.514;1.494;2023-07-31T12:23:16;7.85;;;2.42;;
78873;SDS011;68250;43.514;1.494;2023-07-31T12:25:43;7.22;;;2.22;;
78873;SDS011;68250;43.514;1.494;2023-07-31T12:28:09;5.90;;;2.28;;
78873;SDS011;68250;43.514;1.494;2023-07-31T12:30:38;7.50;;;2.13;;
78873;SDS011;68250;43.514;1.494;2023-07-31T12:33:14;5.80;;;2.13;;
78873;SDS011;68250;43.514;1.494;2023-07-31T12:35:41;7.35;;;2.55;;
78873;SDS011;68250;43.514;1.494;2023-07-31T12:38:08;5.72;;;2.20;;
78873;SDS011;68250;43.514;1.494;2023-07-31T12:40:36;6.23;;;2.50;;
78873;SDS011;68250;43.514;1.494;2023-07-31T12:43:02;10.32;;;2.80;;
78873;SDS011;68250;43.514;1.494;2023-07-31T12:45:31;7.07;;;2.40;;
78873;SDS011;68250;43.514;1.494;2023-07-31T12:47:57;6.95;;;2.60;;
78873;SDS011;68250;43.514;1.494;2023-07-31T12:50:23;7.10;;;2.23;;
78873;SDS011;68250;43.514;1.494;2023-07-31T12:52:50;7.00;;;2.38;;
78873;SDS011;68250;43.514;1.494;2023-07-31T12:55:16;10.15;;;2.38;;
78873;SDS011;68250;43.514;1.494;2023-07-31T12:57:43;6.45;;;2.60;;
78873;SDS011;68250;43.514;1.494;2023-07-31T13:00:09;7.37;;;2.70;;
78873;SDS011;68250;43.514;1.494;2023-07-31T13:02:35;7.03;;;2.50;;
78873;SDS011;68250;43.514;1.494;2023-07-31T13:05:00;7.03;;;2.50;;
78873;SDS011;68250;43.514;1.494;2023-07-31T13:07:26;7.93;;;2.28;;
78873;SDS011;68250;43.514;1.494;2023-07-31T13:09:52;9.97;;;2.73;;
78873;SDS011;68250;43.514;1.494;2023-07-31T13:12:17;7.35;;;2.30;;
78873;SDS011;68250;43.514;1.494;2023-07-31T13:14:43;6.40;;;2.47;;
78873;SDS011;68250;43.514;1.494;2023-07-31T13:17:09;6.72;;;2.63;;
78873;SDS011;68250;43.514;1.494;2023-07-31T13:19:34;8.83;;;2.70;;
78873;SDS011;68250;43.514;1.494;2023-07-31T13:22:00;8.77;;;2.80;;
78873;SDS011;68250;43.514;1.494;2023-07-31T13:24:26;6.68;;;2.25;;
78873;SDS011;68250;43.514;1.494;2023-07-31T13:26:51;5.70;;;2.30;;
78873;SDS011;68250;43.514;1.494;2023-07-31T13:29:17;8.43;;;2.22;;
78873;SDS011;68250;43.514;1.494;2023-07-31T13:31:43;11.53;;;2.73;;
78873;SDS011;68250;43.514;1.494;2023-07-31T13:34:08;10.30;;;2.85;;
78873;SDS011;68250;43.514;1.494;2023-07-31T13:36:34;6.03;;;2.37;;
78873;SDS011;68250;43.514;1.494;2023-07-31T13:39:02;7.15;;;3.10;;
78873;SDS011;68250;43.514;1.494;2023-07-31T13:41:28;6.78;;;2.55;;
78873;SDS011;68250;43.514;1.494;2023-07-31T13:43:53;6.03;;;2.50;;
78873;SDS011;68250;43.514;1.494;2023-07-31T13:46:19;8.77;;;2.30;;
78873;SDS011;68250;43.514;1.494;2023-07-31T13:48:45;7.20;;;2.60;;
78873;SDS011;68250;43.514;1.494;2023-07-31T13:51:10;8.05;;;2.33;;
78873;SDS011;68250;43.514;1.494;2023-07-31T13:53:36;5.30;;;2.77;;
78873;SDS011;68250;43.514;1.494;2023-07-31T13:56:02;6.73;;;2.67;;
78873;SDS011;68250;43.514;1.494;2023-07-31T13:58:27;6.25;;;2.42;;
78873;SDS011;68250;43.514;1.494;2023-07-31T14:00:53;6.70;;;2.70;;
78873;SDS011;68250;43.514;1.494;2023-07-31T14:03:19;8.35;;;2.60;;
78873;SDS011;68250;43.514;1.494;2023-07-31T14:05:44;4.70;;;2.10;;
78873;SDS011;68250;43.514;1.494;2023-07-31T14:08:10;5.55;;;2.75;;
78873;SDS011;68250;43.514;1.494;2023-07-31T14:10:35;17.50;;;2.60;;
78873;SDS011;68250;43.514;1.494;2023-07-31T14:13:01;8.30;;;2.33;;
78873;SDS011;68250;43.514;1.494;2023-07-31T14:15:27;6.80;;;2.40;;
78873;SDS011;68250;43.514;1.494;2023-07-31T14:17:53;6.32;;;2.10;;
78873;SDS011;68250;43.514;1.494;2023-07-31T14:20:19;8.30;;;2.23;;
78873;SDS011;68250;43.514;1.494;2023-07-31T14:22:44;6.65;;;2.53;;
78873;SDS011;68250;43.514;1.494;2023-07-31T14:25:10;8.47;;;2.57;;
78873;SDS011;68250;43.514;1.494;2023-07-31T14:27:36;7.22;;;2.70;;
78873;SDS011;68250;43.514;1.494;2023-07-31T14:30:02;6.53;;;2.80;;
78873;SDS011;68250;43.514;1.494;2023-07-31T14:32:28;8.60;;;2.90;;
78873;SDS011;68250;43.514;1.494;2023-07-31T14:34:54;6.20;;;2.40;;
78873;SDS011;68250;43.514;1.494;2023-07-31T14:37:20;7.37;;;2.70;;
78873;SDS011;68250;43.514;1.494;2023-07-31T14:39:46;8.32;;;2.63;;
78873;SDS011;68250;43.514;1.494;2023-07-31T14:42:11;6.57;;;2.50;;
78873;SDS011;68250;43.514;1.494;2023-07-31T14:44:37;7.43;;;2.58;;
78873;SDS011;68250;43.514;1.494;2023-07-31T14:47:03;6.70;;;2.40;;
78873;SDS011;68250;43.514;1.494;2023-07-31T14:49:29;5.22;;;2.38;;
78873;SDS011;68250;43.514;1.494;2023-07-31T14:51:54;11.23;;;2.50;;